Time;durP1;ratioP1;P1;durP2;ratioP2;P2;SDS_P1;SDS_P2;PMS_P1;PMS_P2;Temp;Humidity;BMP_temperature;BMP_pressure;BME280_temperature;BME280_humidity;BME280_pressure;Samples;Min_cycle;Max_cycle;Signal;HPM_P1;HPM_P2
2023/12/08 00:01:33;;;;;;;6.27;4.90;;;3.40;99.90;;;;;;5094458;28;20172;-77
2023/12/08 00:03:59;;;;;;;7.40;5.00;;;3.50;99.90;;;;;;5094500;28;20174;-77
2023/12/08 00:06:24;;;;;;;7.70;5.00;;;3.50;99.90;;;;;;5092821;28;20208;-77
2023/12/08 00:08:50;;;;;;;7.80;5.37;;;3.50;99.90;;;;;;5093121;28;20202;-77
2023/12/08 00:11:15;;;;;;;6.80;4.90;;;3.50;99.90;;;;;;5094122;28;20564;-77
2023/12/08 00:13:41;;;;;;;7.17;4.87;;;3.40;99.90;;;;;;5094206;28;20661;-77
2023/12/08 00:16:08;;;;;;;8.13;4.83;;;3.40;99.90;;;;;;5094727;28;20193;-77
2023/12/08 00:18:34;;;;;;;6.00;4.80;;;3.40;99.90;;;;;;5093208;28;20208;-77
2023/12/08 00:20:59;;;;;;;6.57;4.77;;;3.40;99.90;;;;;;5092312;28;20572;-78
2023/12/08 00:23:25;;;;;;;6.33;4.97;;;3.40;99.90;;;;;;5094881;28;20197;-77
2023/12/08 00:25:50;;;;;;;6.93;5.40;;;3.40;99.90;;;;;;5094974;28;20190;-77
2023/12/08 00:28:16;;;;;;;8.03;5.23;;;3.40;99.90;;;;;;5093020;28;20179;-77
2023/12/08 00:30:42;;;;;;;6.57;5.50;;;3.40;99.90;;;;;;5093740;28;20236;-77
2023/12/08 00:33:07;;;;;;;6.20;5.57;;;3.50;99.90;;;;;;5094305;28;20154;-77
2023/12/08 00:35:33;;;;;;;10.77;5.97;;;3.40;99.90;;;;;;5092804;28;20217;-77
2023/12/08 00:37:59;;;;;;;6.73;5.33;;;3.40;99.90;;;;;;5094551;28;20166;-77
2023/12/08 00:40:24;;;;;;;7.90;5.83;;;3.40;99.90;;;;;;5093851;28;20197;-76
2023/12/08 00:42:50;;;;;;;10.87;5.80;;;3.30;99.90;;;;;;5093717;28;20181;-76
2023/12/08 00:45:16;;;;;;;7.77;5.97;;;3.40;99.90;;;;;;5093335;28;20197;-77
2023/12/08 00:47:42;;;;;;;8.90;6.27;;;3.40;99.90;;;;;;5093517;28;20180;-76
2023/12/08 00:50:08;;;;;;;8.10;5.43;;;3.40;99.90;;;;;;5093380;28;20256;-77
2023/12/08 00:52:34;;;;;;;9.60;5.67;;;3.40;99.90;;;;;;5093478;28;20724;-77
2023/12/08 00:54:59;;;;;;;7.73;5.77;;;3.40;99.90;;;;;;5091658;28;20170;-77
2023/12/08 00:57:25;;;;;;;6.80;5.57;;;3.40;99.90;;;;;;5093038;28;20177;-77
2023/12/08 00:59:50;;;;;;;7.13;6.00;;;3.40;99.90;;;;;;5093044;28;20170;-77
2023/12/08 01:02:16;;;;;;;8.57;5.77;;;3.40;99.90;;;;;;5092860;28;20178;-77
2023/12/08 01:04:41;;;;;;;8.93;6.67;;;3.40;99.90;;;;;;5092067;28;20802;-77
2023/12/08 01:07:08;;;;;;;7.50;5.93;;;3.40;99.90;;;;;;5093361;28;20211;-77
2023/12/08 01:09:34;;;;;;;10.50;6.50;;;3.40;99.90;;;;;;5091959;28;20178;-77
2023/12/08 01:12:00;;;;;;;9.03;6.13;;;3.40;99.90;;;;;;5093039;28;20201;-77
2023/12/08 01:14:25;;;;;;;8.40;6.17;;;3.40;99.90;;;;;;5093425;28;20193;-77
2023/12/08 01:16:51;;;;;;;8.73;6.00;;;3.40;99.90;;;;;;5093330;28;20240;-77
2023/12/08 01:19:16;;;;;;;7.13;5.70;;;3.40;99.90;;;;;;5091637;28;20170;-77
2023/12/08 01:21:42;;;;;;;7.10;5.90;;;3.40;99.90;;;;;;5092950;28;20170;-77
2023/12/08 01:24:08;;;;;;;9.37;6.37;;;3.50;99.90;;;;;;5091600;28;20269;-77
2023/12/08 01:26:33;;;;;;;9.70;7.10;;;3.50;99.90;;;;;;5091902;28;20190;-77
2023/12/08 01:28:59;;;;;;;9.27;6.47;;;3.50;99.90;;;;;;5093234;28;20178;-77
2023/12/08 01:31:25;;;;;;;7.80;5.90;;;3.50;99.90;;;;;;5092726;28;20559;-77
2023/12/08 01:33:50;;;;;;;9.63;6.13;;;3.50;99.90;;;;;;5092862;28;20174;-76
2023/12/08 01:36:16;;;;;;;9.03;6.33;;;3.40;99.90;;;;;;5092874;28;20269;-77
2023/12/08 01:38:45;;;;;;;7.63;6.10;;;3.50;99.90;;;;;;5092019;28;20174;-77
2023/12/08 01:41:15;;;;;;;10.43;6.43;;;3.50;99.90;;;;;;5093326;28;20549;-77
2023/12/08 01:43:41;;;;;;;9.77;6.20;;;3.50;99.90;;;;;;5092949;28;20166;-76
2023/12/08 01:46:09;;;;;;;9.17;6.47;;;3.50;99.90;;;;;;5093160;28;20602;-77
2023/12/08 01:48:34;;;;;;;10.47;6.87;;;3.40;99.90;;;;;;5092021;28;20664;-77
2023/12/08 01:51:03;;;;;;;9.43;6.97;;;3.40;99.90;;;;;;5093000;28;20194;-77
2023/12/08 01:53:29;;;;;;;10.33;6.53;;;3.50;99.90;;;;;;5091462;28;20185;-77
2023/12/08 01:55:54;;;;;;;8.97;6.27;;;3.40;99.90;;;;;;5092336;28;20280;-77
2023/12/08 01:58:20;;;;;;;8.33;6.63;;;3.50;99.90;;;;;;5093193;28;20641;-77
2023/12/08 02:00:47;;;;;;;9.27;6.40;;;3.50;99.90;;;;;;5092067;28;20297;-77
2023/12/08 02:03:15;;;;;;;10.27;7.13;;;3.50;99.90;;;;;;5094299;28;20233;-77
2023/12/08 02:05:45;;;;;;;8.90;6.47;;;3.40;99.90;;;;;;5093573;28;20198;-77
2023/12/08 02:08:13;;;;;;;9.07;7.10;;;3.40;99.90;;;;;;5092882;28;20155;-77
2023/12/08 02:10:38;;;;;;;7.73;6.10;;;3.50;99.90;;;;;;5092692;28;20169;-77
2023/12/08 02:13:04;;;;;;;9.63;6.87;;;3.40;99.90;;;;;;5092554;28;20561;-77
2023/12/08 02:15:29;;;;;;;8.57;6.83;;;3.40;99.90;;;;;;5092591;28;20194;-77
2023/12/08 02:17:56;;;;;;;9.30;7.17;;;3.40;99.90;;;;;;5091134;28;20681;-77
2023/12/08 02:20:22;;;;;;;10.73;7.33;;;3.40;99.90;;;;;;5092751;28;20169;-77
2023/12/08 02:22:47;;;;;;;12.57;7.07;;;3.50;99.90;;;;;;5090997;28;20170;-77
2023/12/08 02:25:13;;;;;;;9.10;6.60;;;3.50;99.90;;;;;;5092106;28;20185;-77
2023/12/08 02:27:38;;;;;;;9.13;7.30;;;3.50;99.90;;;;;;5090886;28;20170;-77
2023/12/08 02:30:05;;;;;;;9.63;7.20;;;3.50;99.90;;;;;;5092565;28;20649;-77
2023/12/08 02:32:40;;;;;;;8.47;7.00;;;3.50;99.90;;;;;;5092180;28;20557;-77
2023/12/08 02:35:08;;;;;;;9.40;7.23;;;3.50;99.90;;;;;;5092409;28;20184;-77
2023/12/08 02:37:40;;;;;;;10.50;7.47;;;3.40;99.90;;;;;;5092170;28;20241;-77
2023/12/08 02:40:06;;;;;;;10.53;7.50;;;3.50;99.90;;;;;;5092375;28;20177;-77
2023/12/08 02:42:33;;;;;;;9.83;6.67;;;3.40;99.90;;;;;;5091422;28;20175;-77
2023/12/08 02:44:58;;;;;;;10.63;7.97;;;3.40;99.90;;;;;;5094946;28;20223;-76
2023/12/08 02:47:24;;;;;;;10.60;7.47;;;3.40;99.90;;;;;;5096373;28;20568;-77
2023/12/08 02:49:50;;;;;;;12.30;8.53;;;3.30;99.90;;;;;;5096206;28;20182;-77
2023/12/08 02:52:15;;;;;;;11.43;8.37;;;3.30;99.90;;;;;;5095906;28;20210;-77
2023/12/08 02:54:41;;;;;;;10.97;7.80;;;3.30;99.90;;;;;;5094778;28;20182;-77
2023/12/08 02:57:06;;;;;;;12.90;8.30;;;3.20;99.90;;;;;;5094599;28;20225;-77
2023/12/08 02:59:32;;;;;;;13.47;8.33;;;3.20;99.90;;;;;;5094561;28;20170;-77
2023/12/08 03:01:58;;;;;;;10.33;8.47;;;3.20;99.90;;;;;;5095656;28;20209;-77
2023/12/08 03:04:23;;;;;;;11.50;8.50;;;3.20;99.90;;;;;;5094404;28;20181;-77
2023/12/08 03:06:49;;;;;;;12.03;9.20;;;3.10;99.90;;;;;;5094360;28;20558;-77
2023/12/08 03:09:14;;;;;;;12.40;8.67;;;3.10;99.90;;;;;;5095721;28;20171;-77
2023/12/08 03:11:40;;;;;;;12.90;8.83;;;3.10;99.90;;;;;;5095659;28;20198;-77
2023/12/08 03:14:05;;;;;;;11.97;8.23;;;3.10;99.90;;;;;;5094619;28;20170;-76
2023/12/08 03:16:31;;;;;;;11.27;8.60;;;3.10;99.90;;;;;;5094556;28;20196;-77
2023/12/08 03:18:57;;;;;;;11.30;8.47;;;3.10;99.90;;;;;;5095495;28;20204;-77
2023/12/08 03:21:23;;;;;;;11.93;8.93;;;3.00;99.90;;;;;;5095508;28;20178;-77
2023/12/08 03:23:49;;;;;;;12.00;8.80;;;3.10;99.90;;;;;;5094320;28;20170;-77
2023/12/08 03:26:14;;;;;;;12.00;8.53;;;3.00;99.90;;;;;;5095310;28;20217;-77
2023/12/08 03:28:40;;;;;;;14.20;8.57;;;3.00;99.90;;;;;;5095394;28;20170;-77
2023/12/08 03:31:05;;;;;;;12.13;8.67;;;3.00;99.90;;;;;;5094166;28;20548;-77
2023/12/08 03:33:31;;;;;;;10.70;8.27;;;3.00;99.90;;;;;;5095859;28;20267;-77
2023/12/08 03:35:56;;;;;;;13.40;8.37;;;3.00;99.90;;;;;;5095612;28;20189;-77
2023/12/08 03:38:22;;;;;;;10.47;8.37;;;3.00;99.90;;;;;;5094053;28;20170;-77
2023/12/08 03:40:47;;;;;;;13.63;9.47;;;3.00;99.90;;;;;;5094126;28;20170;-77
2023/12/08 03:43:13;;;;;;;10.73;8.67;;;3.00;99.90;;;;;;5095741;28;20249;-77
2023/12/08 03:45:38;;;;;;;13.17;9.07;;;3.00;99.90;;;;;;5093940;28;20548;-77
2023/12/08 03:48:04;;;;;;;15.20;8.97;;;3.00;99.90;;;;;;5093922;28;20174;-77
2023/12/08 03:50:29;;;;;;;11.10;8.33;;;3.00;99.90;;;;;;5095774;28;20534;-77
2023/12/08 03:52:56;;;;;;;12.93;9.50;;;3.00;99.90;;;;;;5095416;28;20198;-77
2023/12/08 03:55:22;;;;;;;11.23;9.23;;;3.00;99.90;;;;;;5094079;28;20221;-77
2023/12/08 03:57:48;;;;;;;11.87;7.97;;;3.00;99.90;;;;;;5094148;28;20197;-77
2023/12/08 04:00:14;;;;;;;10.50;8.53;;;3.00;99.90;;;;;;5095775;28;20250;-77
2023/12/08 04:02:40;;;;;;;10.93;9.13;;;3.00;99.90;;;;;;5095926;28;20213;-77
2023/12/08 04:05:05;;;;;;;14.53;8.30;;;3.00;99.90;;;;;;5094250;28;20189;-77
2023/12/08 04:07:31;;;;;;;12.33;9.40;;;3.00;99.90;;;;;;5095629;28;20171;-77
2023/12/08 04:09:56;;;;;;;12.03;9.23;;;3.00;99.90;;;;;;5094360;28;20170;-78
2023/12/08 04:12:22;;;;;;;13.17;8.40;;;3.00;99.90;;;;;;5096409;28;20284;-77
2023/12/08 04:14:48;;;;;;;10.17;7.83;;;3.00;99.90;;;;;;5097215;28;20170;-78
2023/12/08 04:17:14;;;;;;;12.70;9.50;;;3.00;99.90;;;;;;5095377;28;20186;-77
2023/12/08 04:19:39;;;;;;;11.87;8.23;;;3.00;99.90;;;;;;5097683;28;20174;-77
2023/12/08 04:22:05;;;;;;;12.00;8.57;;;3.00;99.90;;;;;;5099692;28;20230;-77
2023/12/08 04:24:30;;;;;;;11.70;8.37;;;3.10;99.90;;;;;;5100545;28;20206;-77
2023/12/08 04:26:56;;;;;;;11.93;8.77;;;3.10;99.90;;;;;;5095037;28;20719;-77
2023/12/08 04:29:21;;;;;;;9.77;8.30;;;3.10;99.90;;;;;;5093413;28;20187;-77
2023/12/08 04:31:47;;;;;;;14.27;9.37;;;3.10;99.90;;;;;;5094456;28;20220;-77
2023/12/08 04:34:13;;;;;;;14.37;9.10;;;3.10;99.90;;;;;;5094777;28;20223;-78
2023/12/08 04:36:38;;;;;;;15.83;9.50;;;3.10;99.90;;;;;;5094527;28;20239;-77
2023/12/08 04:39:04;;;;;;;10.60;8.73;;;3.10;99.90;;;;;;5092991;28;20247;-77
2023/12/08 04:41:29;;;;;;;13.33;9.50;;;3.10;99.90;;;;;;5092574;28;20174;-77
2023/12/08 04:43:55;;;;;;;10.70;8.47;;;3.00;99.90;;;;;;5093971;28;20714;-77
2023/12/08 04:46:20;;;;;;;11.13;8.83;;;3.10;99.90;;;;;;5092598;28;20190;-76
2023/12/08 04:48:46;;;;;;;12.73;9.37;;;3.10;99.90;;;;;;5092616;28;20308;-77
2023/12/08 04:51:11;;;;;;;12.90;9.57;;;3.10;99.90;;;;;;5093815;28;20210;-77
2023/12/08 04:53:37;;;;;;;11.37;9.07;;;3.10;99.90;;;;;;5093157;28;20202;-77
2023/12/08 04:56:02;;;;;;;12.83;9.53;;;3.00;99.90;;;;;;5093977;28;20190;-77
2023/12/08 04:58:28;;;;;;;14.87;10.00;;;3.00;99.90;;;;;;5093089;28;20546;-77
2023/12/08 05:00:54;;;;;;;13.37;9.83;;;3.00;99.90;;;;;;5093228;28;20220;-77
2023/12/08 05:03:22;;;;;;;13.83;10.30;;;3.00;99.90;;;;;;5094040;28;20190;-77
2023/12/08 05:05:47;;;;;;;13.13;9.17;;;3.00;99.90;;;;;;5092613;28;20194;-77
2023/12/08 05:08:13;;;;;;;15.20;10.03;;;3.00;99.90;;;;;;5092294;28;20219;-77
2023/12/08 05:10:38;;;;;;;14.20;10.73;;;3.00;99.90;;;;;;5093015;28;20265;-77
2023/12/08 05:13:04;;;;;;;15.17;10.70;;;3.00;99.90;;;;;;5094308;28;20240;-77
2023/12/08 05:15:29;;;;;;;14.43;11.00;;;3.00;99.90;;;;;;5092774;28;20248;-77
2023/12/08 05:17:55;;;;;;;18.33;11.63;;;2.90;99.90;;;;;;5093667;28;20166;-77
2023/12/08 05:20:20;;;;;;;17.97;10.87;;;2.90;99.90;;;;;;5092985;28;20166;-77
2023/12/08 05:22:46;;;;;;;15.37;10.63;;;2.90;99.90;;;;;;5095207;28;20275;-77
2023/12/08 05:25:12;;;;;;;13.07;10.93;;;2.90;99.90;;;;;;5094311;28;20702;-77
2023/12/08 05:27:38;;;;;;;15.53;10.90;;;2.90;99.90;;;;;;5093854;28;20217;-77
2023/12/08 05:30:04;;;;;;;15.67;11.07;;;2.90;99.90;;;;;;5092217;28;20650;-77
2023/12/08 05:32:29;;;;;;;15.23;11.37;;;2.90;99.90;;;;;;5091556;28;20239;-77
2023/12/08 05:34:55;;;;;;;19.33;11.83;;;2.90;99.90;;;;;;5093853;28;20166;-78
2023/12/08 05:37:20;;;;;;;17.63;12.07;;;3.00;99.90;;;;;;5093302;28;20230;-77
2023/12/08 05:39:47;;;;;;;16.40;11.43;;;2.90;99.90;;;;;;5093915;28;20167;-77
2023/12/08 05:42:12;;;;;;;16.97;11.60;;;2.90;99.90;;;;;;5091248;28;20709;-77
2023/12/08 05:44:38;;;;;;;19.50;11.27;;;2.90;99.90;;;;;;5092351;28;20253;-77
2023/12/08 05:47:04;;;;;;;16.80;11.90;;;2.90;99.90;;;;;;5090990;28;20194;-77
2023/12/08 05:49:29;;;;;;;17.77;13.10;;;2.90;99.90;;;;;;5092459;28;20170;-77
2023/12/08 05:51:55;;;;;;;14.40;11.87;;;2.90;99.90;;;;;;5092358;28;20205;-76
2023/12/08 05:54:20;;;;;;;16.30;12.77;;;2.90;99.90;;;;;;5092671;28;20170;-77
2023/12/08 05:56:47;;;;;;;18.40;13.37;;;2.90;99.90;;;;;;5092999;28;20197;-77
2023/12/08 05:59:13;;;;;;;18.70;13.30;;;3.00;99.90;;;;;;5091497;28;20177;-77
2023/12/08 06:01:39;;;;;;;17.23;12.20;;;2.90;99.90;;;;;;5091627;28;20174;-78
2023/12/08 06:04:04;;;;;;;20.70;12.70;;;2.90;99.90;;;;;;5091777;28;20177;-77
2023/12/08 06:06:31;;;;;;;18.83;12.63;;;3.00;99.90;;;;;;5092683;28;20205;-77
2023/12/08 06:08:57;;;;;;;17.33;13.10;;;2.90;99.90;;;;;;5092203;28;20174;-76
2023/12/08 06:11:23;;;;;;;19.90;13.07;;;2.90;99.90;;;;;;5092138;28;20242;-76
2023/12/08 06:13:48;;;;;;;16.03;12.60;;;2.90;99.90;;;;;;5092198;28;20653;-76
2023/12/08 06:16:14;;;;;;;16.60;12.47;;;3.00;99.90;;;;;;5092106;28;20182;-76
2023/12/08 06:18:40;;;;;;;18.37;13.03;;;3.00;99.90;;;;;;5092464;28;20163;-76
2023/12/08 06:21:06;;;;;;;18.67;13.40;;;3.00;99.90;;;;;;5095845;28;20177;-76
2023/12/08 06:23:31;;;;;;;16.60;12.70;;;3.00;99.90;;;;;;5094519;28;20178;-76
2023/12/08 06:25:57;;;;;;;18.27;12.67;;;3.10;99.90;;;;;;5095783;28;20194;-76
2023/12/08 06:28:22;;;;;;;18.87;13.23;;;3.00;99.90;;;;;;5094605;28;20209;-77
2023/12/08 06:30:48;;;;;;;17.97;12.90;;;3.00;99.90;;;;;;5096228;28;20182;-77
2023/12/08 06:33:14;;;;;;;18.97;14.10;;;3.00;99.90;;;;;;5097111;28;20549;-76
2023/12/08 06:35:39;;;;;;;15.73;12.40;;;3.00;99.90;;;;;;5096531;28;20259;-76
2023/12/08 06:38:05;;;;;;;16.93;12.57;;;3.00;99.90;;;;;;5094357;28;20319;-76
2023/12/08 06:40:30;;;;;;;19.10;13.87;;;3.00;99.90;;;;;;5095815;28;20163;-76
2023/12/08 06:42:56;;;;;;;19.00;13.33;;;3.00;99.90;;;;;;5095773;28;20665;-76
2023/12/08 06:45:21;;;;;;;18.63;13.23;;;3.00;99.90;;;;;;5095477;28;20281;-76
2023/12/08 06:47:47;;;;;;;18.63;13.93;;;3.00;99.90;;;;;;5094247;28;20174;-76
2023/12/08 06:50:13;;;;;;;21.90;13.90;;;3.10;99.90;;;;;;5094146;28;20174;-76
2023/12/08 06:52:38;;;;;;;18.77;14.50;;;3.10;99.90;;;;;;5095434;28;20646;-76
2023/12/08 06:55:04;;;;;;;18.70;13.87;;;3.00;99.90;;;;;;5095618;28;20189;-76
2023/12/08 06:57:30;;;;;;;17.90;12.87;;;3.10;99.90;;;;;;5093940;28;20182;-76
2023/12/08 06:59:55;;;;;;;20.07;13.70;;;3.10;99.90;;;;;;5094045;28;20264;-76
2023/12/08 07:02:21;;;;;;;21.40;13.67;;;3.10;99.90;;;;;;5095452;28;20681;-77
2023/12/08 07:04:47;;;;;;;20.00;14.03;;;3.10;99.90;;;;;;5095270;28;20167;-76
2023/12/08 07:07:15;;;;;;;19.37;13.67;;;3.10;99.90;;;;;;5093825;28;20573;-76
2023/12/08 07:09:41;;;;;;;19.73;13.53;;;3.10;99.90;;;;;;5095248;28;20703;-77
2023/12/08 07:12:07;;;;;;;16.93;12.63;;;3.10;99.90;;;;;;5093846;28;20210;-76
2023/12/08 07:14:32;;;;;;;18.60;14.13;;;3.10;99.90;;;;;;5095044;28;20662;-76
2023/12/08 07:16:59;;;;;;;20.60;14.10;;;3.10;99.90;;;;;;5094682;28;20187;-76
2023/12/08 07:19:24;;;;;;;20.83;13.87;;;3.10;99.90;;;;;;5093478;28;20650;-76
2023/12/08 07:21:50;;;;;;;18.17;13.67;;;3.10;99.90;;;;;;5094704;28;20215;-76
2023/12/08 07:24:16;;;;;;;20.60;13.30;;;3.10;99.90;;;;;;5093232;28;20179;-76
2023/12/08 07:26:42;;;;;;;17.37;13.77;;;3.20;99.90;;;;;;5094583;28;20206;-76
2023/12/08 07:29:08;;;;;;;21.33;13.53;;;3.10;99.90;;;;;;5094559;28;20177;-76
2023/12/08 07:31:33;;;;;;;19.07;13.63;;;3.10;99.90;;;;;;5093966;28;20316;-76
2023/12/08 07:33:59;;;;;;;18.37;13.80;;;3.20;99.90;;;;;;5093003;28;20170;-76
2023/12/08 07:36:24;;;;;;;19.70;13.73;;;3.20;99.90;;;;;;5093235;28;20284;-75
2023/12/08 07:38:50;;;;;;;24.17;14.23;;;3.20;99.90;;;;;;5094567;28;20599;-75
2023/12/08 07:41:15;;;;;;;19.67;14.23;;;3.20;99.90;;;;;;5094267;28;20178;-76
2023/12/08 07:43:41;;;;;;;19.30;14.77;;;3.20;99.90;;;;;;5092895;28;20232;-75
2023/12/08 07:46:07;;;;;;;18.67;14.03;;;3.20;99.90;;;;;;5094105;28;20198;-75
2023/12/08 07:48:33;;;;;;;20.13;13.80;;;3.20;99.90;;;;;;5094059;28;20171;-75
2023/12/08 07:50:58;;;;;;;18.93;14.47;;;3.20;99.90;;;;;;5094326;28;20178;-75
2023/12/08 07:53:24;;;;;;;19.90;13.53;;;3.30;99.90;;;;;;5093234;28;20178;-74
2023/12/08 07:55:49;;;;;;;19.80;14.50;;;3.30;99.90;;;;;;5092737;28;20217;-75
2023/12/08 07:58:15;;;;;;;21.27;14.60;;;3.30;99.90;;;;;;5092202;28;20170;-75
2023/12/08 08:00:42;;;;;;;17.67;14.40;;;3.30;99.90;;;;;;5092618;28;20545;-74
2023/12/08 08:03:08;;;;;;;20.13;15.27;;;3.30;99.90;;;;;;5093761;28;20245;-76
2023/12/08 08:05:34;;;;;;;19.23;14.10;;;3.30;99.90;;;;;;5093808;28;20650;-75
2023/12/08 08:07:59;;;;;;;19.77;14.77;;;3.30;99.90;;;;;;5093287;28;20190;-75
2023/12/08 08:10:25;;;;;;;18.60;14.17;;;3.30;99.90;;;;;;5092813;28;20193;-75
2023/12/08 08:12:50;;;;;;;19.40;14.13;;;3.30;99.90;;;;;;5093580;28;20206;-75
2023/12/08 08:15:16;;;;;;;17.07;14.03;;;3.30;99.90;;;;;;5093736;28;20173;-75
2023/12/08 08:17:42;;;;;;;20.60;14.47;;;3.30;99.90;;;;;;5094256;28;20265;-76
2023/12/08 08:20:07;;;;;;;20.00;13.90;;;3.40;99.90;;;;;;5092805;28;20174;-75
2023/12/08 08:22:33;;;;;;;22.27;14.80;;;3.40;99.90;;;;;;5093800;28;20227;-76
2023/12/08 08:24:59;;;;;;;19.40;14.40;;;3.40;99.90;;;;;;5092547;28;20260;-77
2023/12/08 08:27:25;;;;;;;22.43;14.57;;;3.40;99.90;;;;;;5093503;28;20186;-76
2023/12/08 08:29:51;;;;;;;22.17;14.67;;;3.40;99.90;;;;;;5092130;28;20528;-76
2023/12/08 08:32:17;;;;;;;19.90;13.43;;;3.40;99.90;;;;;;5093351;28;20210;-75
2023/12/08 08:34:43;;;;;;;21.27;14.17;;;3.40;99.90;;;;;;5092116;28;20555;-76
2023/12/08 08:37:08;;;;;;;20.77;15.10;;;3.50;99.90;;;;;;5093723;28;20182;-76
2023/12/08 08:39:34;;;;;;;20.47;13.93;;;3.50;99.90;;;;;;5093941;28;20181;-76
2023/12/08 08:41:59;;;;;;;21.03;14.83;;;3.50;99.90;;;;;;5092045;28;20178;-76
2023/12/08 08:44:26;;;;;;;20.60;14.20;;;3.50;99.90;;;;;;5093532;28;20189;-76
2023/12/08 08:46:52;;;;;;;20.27;14.33;;;3.50;99.90;;;;;;5092215;28;20558;-76
2023/12/08 08:49:17;;;;;;;19.97;14.50;;;3.50;99.90;;;;;;5093676;28;20176;-76
2023/12/08 08:51:44;;;;;;;19.07;13.57;;;3.60;99.90;;;;;;5093326;28;20212;-76
2023/12/08 08:54:09;;;;;;;18.40;13.40;;;3.60;99.90;;;;;;5093326;28;20169;-75
2023/12/08 08:56:35;;;;;;;20.47;14.40;;;3.60;99.90;;;;;;5091798;28;20673;-76
2023/12/08 08:59:03;;;;;;;18.23;14.03;;;3.60;99.90;;;;;;5093108;28;20530;-76
2023/12/08 09:01:28;;;;;;;21.37;13.90;;;3.60;99.90;;;;;;5093034;28;20581;-76
2023/12/08 09:03:54;;;;;;;20.63;14.40;;;3.60;99.90;;;;;;5093560;28;20178;-76
2023/12/08 09:06:19;;;;;;;19.17;15.10;;;3.60;99.90;;;;;;5091597;28;20574;-76
2023/12/08 09:08:45;;;;;;;18.00;14.17;;;3.70;99.90;;;;;;5093097;28;20169;-76
2023/12/08 09:11:12;;;;;;;19.77;14.17;;;3.70;99.90;;;;;;5091429;28;20681;-76
2023/12/08 09:13:37;;;;;;;20.20;15.07;;;3.70;99.90;;;;;;5092855;28;20181;-76
2023/12/08 09:16:04;;;;;;;20.90;15.17;;;3.70;99.90;;;;;;5091602;28;20227;-76
2023/12/08 09:18:29;;;;;;;20.57;14.77;;;3.70;99.90;;;;;;5092873;28;20642;-76
2023/12/08 09:20:55;;;;;;;20.67;15.10;;;3.70;99.90;;;;;;5091352;28;20220;-75
2023/12/08 09:23:23;;;;;;;22.07;15.03;;;3.70;99.90;;;;;;5090460;28;20622;-76
2023/12/08 09:25:49;;;;;;;20.60;14.37;;;3.80;99.90;;;;;;5083941;28;20712;-77
2023/12/08 09:28:16;;;;;;;21.60;15.27;;;3.80;99.90;;;;;;5070819;28;20167;-77
2023/12/08 09:30:42;;;;;;;22.80;15.93;;;3.80;99.90;;;;;;5072870;28;20185;-76
2023/12/08 09:33:09;;;;;;;19.07;15.03;;;3.80;99.90;;;;;;5088355;28;20210;-75
2023/12/08 09:35:35;;;;;;;21.53;15.97;;;3.80;99.90;;;;;;5086818;28;20554;-75
2023/12/08 09:38:00;;;;;;;22.83;15.43;;;3.80;99.90;;;;;;5071384;28;20163;-77
2023/12/08 09:40:28;;;;;;;21.37;15.10;;;3.80;99.90;;;;;;5072588;28;20174;-77
2023/12/08 09:43:01;;;;;;;26.23;16.00;;;3.80;99.90;;;;;;5071399;28;20554;-77
2023/12/08 09:45:27;;;;;;;20.47;15.30;;;3.80;99.90;;;;;;5075877;28;20331;-76
2023/12/08 09:47:55;;;;;;;27.07;15.63;;;3.80;99.90;;;;;;5091297;28;20236;-76
2023/12/08 09:50:22;;;;;;;22.37;15.63;;;3.90;99.90;;;;;;5091483;28;20547;-77
2023/12/08 09:52:48;;;;;;;19.80;14.60;;;3.90;99.90;;;;;;5093570;28;20197;-76
2023/12/08 09:55:15;;;;;;;22.30;15.60;;;3.90;99.90;;;;;;5096938;28;20167;-76
2023/12/08 09:57:43;;;;;;;22.90;16.00;;;3.80;99.90;;;;;;5095646;28;20178;-77
2023/12/08 10:00:13;;;;;;;25.57;16.53;;;3.90;99.90;;;;;;5097378;28;20211;-77
2023/12/08 10:02:40;;;;;;;21.70;15.20;;;3.90;99.90;;;;;;5097135;28;20170;-77
2023/12/08 10:05:07;;;;;;;21.83;15.93;;;3.90;99.90;;;;;;5097343;28;20170;-77
2023/12/08 10:07:34;;;;;;;24.23;17.03;;;3.90;99.90;;;;;;5098091;28;20231;-76
2023/12/08 10:10:00;;;;;;;24.47;16.93;;;3.90;99.90;;;;;;5095884;28;20174;-77
2023/12/08 10:12:25;;;;;;;24.77;16.67;;;3.90;99.90;;;;;;5095815;28;20204;-77
2023/12/08 10:14:56;;;;;;;24.83;17.23;;;3.90;99.90;;;;;;5094921;28;20213;-76
2023/12/08 10:17:23;;;;;;;24.17;16.60;;;4.00;99.90;;;;;;5093856;28;20198;-76
2023/12/08 10:19:50;;;;;;;25.97;16.03;;;4.00;99.90;;;;;;5095923;28;20630;-76
2023/12/08 10:22:17;;;;;;;24.70;16.50;;;4.00;99.90;;;;;;5095901;28;20303;-76
2023/12/08 10:24:42;;;;;;;28.47;17.50;;;4.00;99.90;;;;;;5096036;28;20646;-76
2023/12/08 10:27:11;;;;;;;22.00;16.17;;;4.00;99.90;;;;;;5093933;28;20198;-76
2023/12/08 10:29:37;;;;;;;22.87;16.47;;;4.00;99.90;;;;;;5094837;28;20188;-75
2023/12/08 10:32:06;;;;;;;25.97;17.57;;;4.00;99.90;;;;;;5095633;28;20206;-75
2023/12/08 10:34:32;;;;;;;23.47;16.53;;;4.00;99.90;;;;;;5094882;28;20261;-74
2023/12/08 10:36:57;;;;;;;29.77;18.07;;;4.10;99.90;;;;;;5095656;28;20232;-75
2023/12/08 10:39:24;;;;;;;26.97;17.80;;;4.10;99.90;;;;;;5094247;28;20676;-75
2023/12/08 10:41:54;;;;;;;26.17;18.13;;;4.10;99.90;;;;;;5095681;28;20247;-75
2023/12/08 10:44:23;;;;;;;24.13;17.30;;;4.10;99.90;;;;;;5094540;28;20472;-75
2023/12/08 10:46:49;;;;;;;34.70;18.87;;;4.20;99.90;;;;;;5095863;28;20209;-75
2023/12/08 10:49:17;;;;;;;28.03;18.17;;;4.20;99.90;;;;;;5099829;28;20654;-76
2023/12/08 10:51:47;;;;;;;27.70;19.20;;;4.20;99.90;;;;;;5100350;28;20206;-77
2023/12/08 10:54:17;;;;;;;29.27;18.70;;;4.30;99.90;;;;;;5097005;28;20155;-77
2023/12/08 10:56:44;;;;;;;28.57;19.57;;;4.30;99.90;;;;;;5096320;28;20277;-76
2023/12/08 10:59:11;;;;;;;27.00;18.97;;;4.30;99.90;;;;;;5099115;28;20166;-78
2023/12/08 11:01:37;;;;;;;31.03;19.43;;;4.30;99.90;;;;;;5114701;28;20174;-78
2023/12/08 11:04:05;;;;;;;30.20;19.60;;;4.40;99.90;;;;;;5111210;28;20182;-77
2023/12/08 11:06:38;;;;;;;29.67;19.63;;;4.40;99.90;;;;;;5095508;28;20249;-77
2023/12/08 11:09:06;;;;;;;34.63;19.20;;;4.40;99.90;;;;;;5094806;28;20170;-78
2023/12/08 11:11:35;;;;;;;30.07;20.63;;;4.40;99.90;;;;;;5095605;28;20685;-78
2023/12/08 11:14:17;;;;;;;33.30;20.67;;;4.50;99.90;;;;;;5096562;28;20166;-78
2023/12/08 11:16:57;;;;;;;35.53;22.23;;;4.50;99.90;;;;;;5094816;28;20574;-78
2023/12/08 11:19:25;;;;;;;38.10;21.23;;;4.50;99.90;;;;;;5094833;28;20231;-78
2023/12/08 11:21:52;;;;;;;33.23;22.00;;;4.50;99.90;;;;;;5096124;28;20219;-78
2023/12/08 11:24:20;;;;;;;35.37;22.17;;;4.50;99.90;;;;;;5094872;28;20178;-78
2023/12/08 11:27:04;;;;;;;38.30;21.77;;;4.50;99.90;;;;;;5094737;28;20194;-77
2023/12/08 11:29:37;;;;;;;37.70;21.97;;;4.60;99.90;;;;;;5096672;28;20155;-78
2023/12/08 11:33:01;;;;;;;38.40;22.53;;;4.60;99.90;;;;;;5096106;28;20213;-78
2023/12/08 11:35:29;;;;;;;32.90;21.07;;;4.60;99.90;;;;;;5072526;28;20572;-78
2023/12/08 11:37:54;;;;;;;34.63;22.67;;;4.70;99.90;;;;;;5094503;28;20174;-78
2023/12/08 11:40:20;;;;;;;42.30;22.77;;;4.70;99.90;;;;;;5096096;28;20257;-77
2023/12/08 11:42:47;;;;;;;40.17;21.73;;;4.70;99.90;;;;;;5096319;28;20228;-78
2023/12/08 11:45:13;;;;;;;33.03;21.67;;;4.70;99.90;;;;;;5095405;28;20629;-78
2023/12/08 11:47:40;;;;;;;35.90;21.53;;;4.80;99.90;;;;;;5096704;28;20212;-78
2023/12/08 11:50:07;;;;;;;39.80;22.73;;;4.80;99.90;;;;;;5096775;28;20212;-78
2023/12/08 11:52:35;;;;;;;35.73;22.43;;;4.80;99.90;;;;;;5095001;28;20221;-78
2023/12/08 11:55:12;;;;;;;36.30;21.23;;;4.90;99.90;;;;;;5095167;28;20209;-78
2023/12/08 11:57:41;;;;;;;33.57;22.10;;;4.90;99.90;;;;;;5096519;28;20249;-78
2023/12/08 12:00:10;;;;;;;37.63;22.50;;;5.00;99.90;;;;;;5094707;28;20258;-78
2023/12/08 12:02:42;;;;;;;35.20;21.20;;;5.00;99.90;;;;;;5096208;28;20545;-78
2023/12/08 12:05:09;;;;;;;33.93;21.10;;;5.00;99.90;;;;;;5094955;28;20601;-78
2023/12/08 12:07:35;;;;;;;39.70;21.80;;;5.10;99.90;;;;;;5096207;28;20174;-78
2023/12/08 12:10:02;;;;;;;36.27;21.33;;;5.10;99.90;;;;;;5096347;28;20166;-77
2023/12/08 12:12:31;;;;;;;36.23;21.87;;;5.10;99.90;;;;;;5094675;28;20599;-78
2023/12/08 12:15:01;;;;;;;35.00;22.70;;;5.10;99.90;;;;;;5094427;28;20178;-78
2023/12/08 12:17:28;;;;;;;41.77;24.30;;;5.10;99.90;;;;;;5094002;28;20221;-78
2023/12/08 12:19:55;;;;;;;40.50;22.53;;;5.10;99.90;;;;;;5094079;28;20174;-78
2023/12/08 12:22:20;;;;;;;34.67;22.37;;;5.10;99.90;;;;;;5094653;28;20174;-78
2023/12/08 12:24:46;;;;;;;38.63;24.50;;;5.20;99.90;;;;;;5093517;28;20231;-77
2023/12/08 12:27:12;;;;;;;40.20;23.93;;;5.20;99.90;;;;;;5093694;28;20208;-75
2023/12/08 12:29:38;;;;;;;40.77;23.17;;;5.10;99.90;;;;;;5092091;28;20552;-75
2023/12/08 12:32:07;;;;;;;41.77;24.43;;;5.20;99.90;;;;;;5093203;28;20206;-75
2023/12/08 12:34:33;;;;;;;35.40;24.20;;;5.20;99.90;;;;;;5093271;28;20240;-74
2023/12/08 12:36:58;;;;;;;41.13;22.73;;;5.20;99.90;;;;;;5093270;28;20551;-75
2023/12/08 12:39:25;;;;;;;37.83;23.63;;;5.20;99.90;;;;;;5093558;28;20163;-75